Time;durP1;ratioP1;P1;durP2;ratioP2;P2;SDS_P1;SDS_P2;PMS_P1;PMS_P2;Temp;Humidity;BMP_temperature;BMP_pressure;BME280_temperature;BME280_humidity;BME280_pressure;Samples;Min_cycle;Max_cycle;Signal;HPM_P1;HPM_P2
2022/10/01 00:00:48;;;;;;;;;;;;;;;;;;5067286;28;45722;-77
2022/10/01 00:03:14;;;;;;;;;;;;;;;;;;5068423;28;46410;-78
2022/10/01 00:05:42;;;;;;;;;;;;;;;;;;5068118;28;43396;-79
2022/10/01 00:08:08;;;;;;;;;;;;;;;;;;5072367;28;44850;-77
2022/10/01 00:10:38;;;;;;;;;;;;;;;;;;5067810;28;45817;-78
2022/10/01 00:13:05;;;;;;;;;;;;;;;;;;5072715;28;44612;-78
2022/10/01 00:15:32;;;;;;;;;;;;;;;;;;5063014;28;43717;-77
2022/10/01 00:17:59;;;;;;;;;;;;;;;;;;5071831;28;44671;-78
2022/10/01 00:20:26;;;;;;;;;;;;;;;;;;5072224;28;46005;-77
2022/10/01 00:22:54;;;;;;;;;;;;;;;;;;5073851;28;45339;-77
2022/10/01 00:25:21;;;;;;;;;;;;;;;;;;5069021;28;43536;-77
2022/10/01 00:27:48;;;;;;;;;;;;;;;;;;5072343;28;45071;-78
2022/10/01 00:30:16;;;;;;;;;;;;;;;;;;5074251;28;46894;-79
2022/10/01 00:32:44;;;;;;;;;;;;;;;;;;5075236;28;44826;-78
2022/10/01 00:35:12;;;;;;;;;;;;;;;;;;5066194;28;43460;-79
2022/10/01 00:37:41;;;;;;;;;;;;;;;;;;5073341;28;45888;-79
2022/10/01 00:40:08;;;;;;;;;;;;;;;;;;5070580;28;46098;-78
2022/10/01 00:42:35;;;;;;;;;;;;;;;;;;5072974;28;46177;-77
2022/10/01 00:45:02;;;;;;;;;;;;;;;;;;5078073;28;43636;-78
2022/10/01 00:47:30;;;;;;;;;;;;;;;;;;5070027;28;44875;-77
2022/10/01 00:49:57;;;;;;;;;;;;;;;;;;5069241;28;45400;-78
2022/10/01 00:52:27;;;;;;;;;;;;;;;;;;5075136;28;44963;-77
2022/10/01 00:54:54;;;;;;;;;;;;;;;;;;5062788;28;43731;-77
2022/10/01 00:57:21;;;;;;;;;;;;;;;;;;5065365;28;45158;-79
2022/10/01 00:59:49;;;;;;;;;;;;;;;;;;5071282;28;45372;-78
2022/10/01 01:02:16;;;;;;;;;;;;;;;;;;5068316;28;44760;-78
2022/10/01 01:04:43;;;;;;;;;;;;;;;;;;5070681;28;44394;-78
2022/10/01 01:07:11;;;;;;;;;;;;;;;;;;5077760;28;43191;-78
2022/10/01 01:09:38;;;;;;;;;;;;;;;;;;5070279;28;46119;-78
2022/10/01 01:12:05;;;;;;;;;;;;;;;;;;5071758;28;45031;-77
2022/10/01 01:14:32;;;;;;;;;;;;;;;;;;5067620;28;43473;-78
2022/10/01 01:16:59;;;;;;;;;;;;;;;;;;5069657;28;44736;-78
2022/10/01 01:19:25;;;;;;;;;;;;;;;;;;5068697;28;45754;-78
2022/10/01 01:21:52;;;;;;;;;;;;;;;;;;5067507;28;43713;-78
2022/10/01 01:24:20;;;;;;;;;;;;;;;;;;5067623;28;43139;-77
2022/10/01 01:26:47;;;;;;;;;;;;;;;;;;5074218;28;45216;-80
2022/10/01 01:29:17;;;;;;;;;;;;;;;;;;5070297;28;45716;-77
2022/10/01 01:31:45;;;;;;;;;;;;;;;;;;5075669;28;44937;-78
2022/10/01 01:34:12;;;;;;;;;;;;;;;;;;5060707;28;43559;-79
2022/10/01 01:36:39;;;;;;;;;;;;;;;;;;5061051;28;44765;-80
2022/10/01 01:39:06;;;;;;;;;;;;;;;;;;5067329;28;44939;-79
2022/10/01 01:41:34;;;;;;;;;;;;;;;;;;5067609;28;44919;-79
2022/10/01 01:44:02;;;;;;;;;;;;;;;;;;5064661;28;41489;-78
2022/10/01 01:46:32;;;;;;;;;;;;;;;;;;5073118;28;44789;-77
2022/10/01 01:48:59;;;;;;;;;;;;;;;;;;5075345;28;46073;-80
2022/10/01 01:51:26;;;;;;;;;;;;;;;;;;5064164;28;45014;-80
2022/10/01 01:53:53;;;;;;;;;;;;;;;;;;5059781;28;43484;-80
2022/10/01 01:56:21;;;;;;;;;;;;;;;;;;5064491;28;44435;-79
2022/10/01 01:58:48;;;;;;;;;;;;;;;;;;5063168;28;46700;-78
2022/10/01 02:01:15;;;;;;;;;;;;;;;;;;5077423;28;45010;-80
2022/10/01 02:03:41;;;;;;;;;;;;;;;;;;5079261;28;43560;-80
2022/10/01 02:06:08;;;;;;;;;;;;;;;;;;5078143;28;45267;-79
2022/10/01 02:08:36;;;;;;;;;;;;;;;;;;5082832;28;44708;-81
2022/10/01 02:11:03;;;;;;;;;;;;;;;;;;5083054;28;44907;-79
2022/10/01 02:13:30;;;;;;;;;;;;;;;;;;5087010;28;43697;-79
2022/10/01 02:15:58;;;;;;;;;;;;;;;;;;5086376;28;44906;-79
2022/10/01 02:18:29;;;;;;;;;;;;;;;;;;5084827;28;46023;-80
2022/10/01 02:20:55;;;;;;;;;;;;;;;;;;5083164;28;45075;-81
2022/10/01 02:23:23;;;;;;;;;;;;;;;;;;5081477;28;41077;-79
2022/10/01 02:25:50;;;;;;;;;;;;;;;;;;5077937;28;44569;-80
2022/10/01 02:28:17;;;;;;;;;;;;;;;;;;5089545;28;45793;-81
2022/10/01 02:30:44;;;;;;;;;;;;;;;;;;5084007;28;44850;-80
2022/10/01 02:33:12;;;;;;;;;;;;;;;;;;5075796;28;43650;-81
2022/10/01 02:35:40;;;;;;;;;;;;;;;;;;5078789;28;44664;-81
2022/10/01 02:38:07;;;;;;;;;;;;;;;;;;5082184;28;45668;-80
2022/10/01 02:40:35;;;;;;;;;;;;;;;;;;5093266;28;45130;-81
2022/10/01 02:43:02;;;;;;;;;;;;;;;;;;5087547;28;43692;-79
2022/10/01 02:45:31;;;;;;;;;;;;;;;;;;5093248;28;44856;-81
2022/10/01 02:47:58;;;;;;;;;;;;;;;;;;5089636;28;44823;-81
2022/10/01 02:50:25;;;;;;;;;;;;;;;;;;5076974;28;45101;-81
2022/10/01 02:52:52;;;;;;;;;;;;;;;;;;5082108;28;44124;-81
2022/10/01 02:55:19;;;;;;;;;;;;;;;;;;5086295;28;44446;-81
2022/10/01 02:57:46;;;;;;;;;;;;;;;;;;5087011;28;44022;-80
2022/10/01 03:00:14;;;;;;;;;;;;;;;;;;5083111;28;45189;-81
2022/10/01 03:02:41;;;;;;;;;;;;;;;;;;5079716;28;45023;-78
2022/10/01 03:05:08;;;;;;;;;;;;;;;;;;5101978;28;44619;-81
2022/10/01 03:07:35;;;;;;;;;;;;;;;;;;5087680;28;45941;-81
2022/10/01 03:10:02;;;;;;;;;;;;;;;;;;5085318;28;43566;-81
2022/10/01 03:12:29;;;;;;;;;;;;;;;;;;5084642;28;43700;-80
2022/10/01 03:14:56;;;;;;;;;;;;;;;;;;5081309;28;45947;-81
2022/10/01 03:17:23;;;;;;;;;;;;;;;;;;5076929;28;45460;-81
2022/10/01 03:19:50;;;;;;;;;;;;;;;;;;5081656;28;44988;-81
2022/10/01 03:22:19;;;;;;;;;;;;;;;;;;5088149;28;43685;-80
2022/10/01 03:24:46;;;;;;;;;;;;;;;;;;5081688;28;45025;-81
2022/10/01 03:27:13;;;;;;;;;;;;;;;;;;5089608;28;45460;-80
2022/10/01 03:29:41;;;;;;;;;;;;;;;;;;5086343;28;45009;-81
2022/10/01 03:32:08;;;;;;;;;;;;;;;;;;5074344;28;43727;-80
2022/10/01 03:34:35;;;;;;;;;;;;;;;;;;5073007;28;44538;-81
2022/10/01 03:37:02;;;;;;;;;;;;;;;;;;5081298;28;45720;-80
2022/10/01 03:39:30;;;;;;;;;;;;;;;;;;5079979;28;45554;-81
2022/10/01 03:41:57;;;;;;;;;;;;;;;;;;5070269;28;43785;-80
2022/10/01 03:44:24;;;;;;;;;;;;;;;;;;5071529;28;45846;-78
2022/10/01 03:46:51;;;;;;;;;;;;;;;;;;5075718;28;46000;-81
2022/10/01 03:49:18;;;;;;;;;;;;;;;;;;5090771;28;46160;-80
2022/10/01 03:51:45;;;;;;;;;;;;;;;;;;5078698;28;43138;-80
2022/10/01 03:54:12;;;;;;;;;;;;;;;;;;5079097;28;45172;-82
2022/10/01 03:56:41;;;;;;;;;;;;;;;;;;5074303;28;45658;-81
2022/10/01 03:59:08;;;;;;;;;;;;;;;;;;5067638;28;44794;-82
2022/10/01 04:01:35;;;;;;;;;;;;;;;;;;5072810;28;44015;-81
2022/10/01 04:04:03;;;;;;;;;;;;;;;;;;5064168;28;44545;-82
2022/10/01 04:06:31;;;;;;;;;;;;;;;;;;5066743;28;45364;-80
2022/10/01 04:08:58;;;;;;;;;;;;;;;;;;5072601;28;45471;-79
2022/10/01 04:11:25;;;;;;;;;;;;;;;;;;5067732;28;44224;-80
2022/10/01 04:13:52;;;;;;;;;;;;;;;;;;5067311;28;45566;-81
2022/10/01 04:16:19;;;;;;;;;;;;;;;;;;5068622;28;45559;-80
2022/10/01 04:18:47;;;;;;;;;;;;;;;;;;5074517;28;44167;-81
2022/10/01 04:21:14;;;;;;;;;;;;;;;;;;5075639;28;44616;-78
2022/10/01 04:23:41;;;;;;;;;;;;;;;;;;5071988;28;44214;-80
2022/10/01 04:26:08;;;;;;;;;;;;;;;;;;5070400;28;45484;-81
2022/10/01 04:28:35;;;;;;;;;;;;;;;;;;5070017;28;45099;-80
2022/10/01 04:33:48;;;;;;;;;;;;;;;;;;5063923;28;44958;-80
2022/10/01 04:36:16;;;;;;;;;;;;;;;;;;5073478;28;45691;-79
2022/10/01 04:38:43;;;;;;;;;;;;;;;;;;5078811;28;44684;-81
2022/10/01 04:41:12;;;;;;;;;;;;;;;;;;5078788;28;44969;-81
2022/10/01 04:43:39;;;;;;;;;;;;;;;;;;5082037;28;45060;-80
2022/10/01 04:46:06;;;;;;;;;;;;;;;;;;5072747;28;45471;-80
2022/10/01 04:48:34;;;;;;;;;;;;;;;;;;5067568;28;45011;-79
2022/10/01 04:51:01;;;;;;;;;;;;;;;;;;5073099;28;43703;-80
2022/10/01 04:53:28;;;;;;;;;;;;;;;;;;5070624;28;44439;-79
2022/10/01 04:55:55;;;;;;;;;;;;;;;;;;5068487;28;45824;-79
2022/10/01 04:58:22;;;;;;;;;;;;;;;;;;5072694;28;44923;-80
2022/10/01 05:00:49;;;;;;;;;;;;;;;;;;5071846;28;43424;-80
2022/10/01 05:03:16;;;;;;;;;;;;;;;;;;5082335;28;44893;-81
2022/10/01 05:05:43;;;;;;;;;;;;;;;;;;5078033;28;45695;-80
2022/10/01 05:08:11;;;;;;;;;;;;;;;;;;5067928;28;44963;-81
2022/10/01 05:10:38;;;;;;;;;;;;;;;;;;5071493;28;42428;-79
2022/10/01 05:13:05;;;;;;;;;;;;;;;;;;5070276;28;44970;-79
2022/10/01 05:15:34;;;;;;;;;;;;;;;;;;5074641;28;45302;-80
2022/10/01 05:18:01;;;;;;;;;;;;;;;;;;5079225;28;46004;-80
2022/10/01 05:20:28;;;;;;;;;;;;;;;;;;5072591;28;42465;-80
2022/10/01 05:22:55;;;;;;;;;;;;;;;;;;5082787;28;44873;-80
2022/10/01 05:25:22;;;;;;;;;;;;;;;;;;5076766;28;45813;-80
2022/10/01 05:27:49;;;;;;;;;;;;;;;;;;5080102;28;46034;-81
2022/10/01 05:30:21;;;;;;;;;;;;;;;;;;5086747;28;43710;-81
2022/10/01 05:32:48;;;;;;;;;;;;;;;;;;5089355;28;44760;-81
2022/10/01 05:35:15;;;;;;;;;;;;;;;;;;5091261;28;44310;-81
2022/10/01 05:37:42;;;;;;;;;;;;;;;;;;5091865;28;44977;-81
2022/10/01 05:40:09;;;;;;;;;;;;;;;;;;5083732;28;43604;-82
2022/10/01 05:42:36;;;;;;;;;;;;;;;;;;5096903;28;44878;-81
2022/10/01 05:45:03;;;;;;;;;;;;;;;;;;5084554;28;45835;-81
2022/10/01 05:47:30;;;;;;;;;;;;;;;;;;5077269;28;45101;-82
2022/10/01 05:49:57;;;;;;;;;;;;;;;;;;5072773;28;43739;-81
2022/10/01 05:52:24;;;;;;;;;;;;;;;;;;5074316;28;44861;-81
2022/10/01 05:54:51;;;;;;;;;;;;;;;;;;5073400;28;45263;-82
2022/10/01 05:57:18;;;;;;;;;;;;;;;;;;5076739;28;42571;-79
2022/10/01 05:59:45;;;;;;;;;;;;;;;;;;5081684;28;43344;-81
2022/10/01 06:02:12;;;;;;;;;;;;;;;;;;5081146;28;44925;-80
2022/10/01 06:04:39;;;;;;;;;;;;;;;;;;5076966;28;45980;-79
2022/10/01 06:07:08;;;;;;;;;;;;;;;;;;5080320;28;45949;-81
2022/10/01 06:09:35;;;;;;;;;;;;;;;;;;5075622;28;44616;-81
2022/10/01 06:12:02;;;;;;;;;;;;;;;;;;5071133;28;44748;-81
2022/10/01 06:14:28;;;;;;;;;;;;;;;;;;5074557;28;47143;-80
2022/10/01 06:16:55;;;;;;;;;;;;;;;;;;5076394;28;46179;-80
2022/10/01 06:19:23;;;;;;;;;;;;;;;;;;5073622;28;41998;-80
2022/10/01 06:21:50;;;;;;;;;;;;;;;;;;5064347;28;45852;-80
2022/10/01 06:24:17;;;;;;;;;;;;;;;;;;5073708;28;46840;-80
2022/10/01 06:26:44;;;;;;;;;;;;;;;;;;5059684;28;44757;-81
2022/10/01 06:29:11;;;;;;;;;;;;;;;;;;5064779;28;43553;-80
2022/10/01 06:31:38;;;;;;;;;;;;;;;;;;5061135;28;44650;-80
2022/10/01 06:34:05;;;;;;;;;;;;;;;;;;5067213;28;46402;-80
2022/10/01 06:36:32;;;;;;;;;;;;;;;;;;5074928;28;45003;-80
2022/10/01 06:38:59;;;;;;;;;;;;;;;;;;5074011;28;43574;-80
2022/10/01 06:41:26;;;;;;;;;;;;;;;;;;5070210;28;44438;-80
2022/10/01 06:43:53;;;;;;;;;;;;;;;;;;5072320;28;46867;-80
2022/10/01 06:46:20;;;;;;;;;;;;;;;;;;5067706;28;46162;-81
2022/10/01 06:48:47;;;;;;;;;;;;;;;;;;5067779;28;41490;-81
2022/10/01 06:51:15;;;;;;;;;;;;;;;;;;5067291;28;44571;-80
2022/10/01 06:53:42;;;;;;;;;;;;;;;;;;5069931;28;45752;-80
2022/10/01 06:56:09;;;;;;;;;;;;;;;;;;5068798;28;46477;-80
2022/10/01 06:58:36;;;;;;;;;;;;;;;;;;5068789;28;43680;-80
2022/10/01 07:01:03;;;;;;;;;;;;;;;;;;5067319;28;44767;-82
2022/10/01 07:03:30;;;;;;;;;;;;;;;;;;5078351;28;46397;-81
2022/10/01 07:05:57;;;;;;;;;;;;;;;;;;5076139;28;45093;-80
2022/10/01 07:08:24;;;;;;;;;;;;;;;;;;5083431;28;45029;-81
2022/10/01 07:10:51;;;;;;;;;;;;;;;;;;5078744;28;44735;-81
2022/10/01 07:13:19;;;;;;;;;;;;;;;;;;5079970;28;45721;-80
2022/10/01 07:15:46;;;;;;;;;;;;;;;;;;5074381;28;45038;-80
2022/10/01 07:18:14;;;;;;;;;;;;;;;;;;5079661;28;43842;-80
2022/10/01 07:20:41;;;;;;;;;;;;;;;;;;5070678;28;44864;-80
2022/10/01 07:23:08;;;;;;;;;;;;;;;;;;5066645;28;46631;-80
2022/10/01 07:25:37;;;;;;;;;;;;;;;;;;5062104;28;44924;-80
2022/10/01 07:28:04;;;;;;;;;;;;;;;;;;5067276;28;43591;-80
2022/10/01 07:30:31;;;;;;;;;;;;;;;;;;5071511;28;43267;-81
2022/10/01 07:32:58;;;;;;;;;;;;;;;;;;5067229;28;47155;-80
2022/10/01 07:35:25;;;;;;;;;;;;;;;;;;5060979;28;45029;-82
2022/10/01 07:37:54;;;;;;;;;;;;;;;;;;5065599;28;43950;-81
2022/10/01 07:40:21;;;;;;;;;;;;;;;;;;5078938;28;44337;-80
2022/10/01 07:42:48;;;;;;;;;;;;;;;;;;5072460;28;45482;-80
2022/10/01 07:45:15;;;;;;;;;;;;;;;;;;5066876;28;44994;-81
2022/10/01 07:47:42;;;;;;;;;;;;;;;;;;5061730;28;43682;-80
2022/10/01 07:50:10;;;;;;;;;;;;;;;;;;5069348;28;45421;-81
2022/10/01 07:52:37;;;;;;;;;;;;;;;;;;5064580;28;46031;-81
2022/10/01 07:55:04;;;;;;;;;;;;;;;;;;5066829;28;45057;-81
2022/10/01 07:57:33;;;;;;;;;;;;;;;;;;5063107;28;44655;-79
2022/10/01 08:00:02;;;;;;;;;;;;;;;;;;5062124;28;44464;-80
2022/10/01 08:02:30;;;;;;;;;;;;;;;;;;5067641;28;45775;-80
2022/10/01 08:07:43;;;;;;;;;;;;;;;;;;5071208;28;44714;-82
2022/10/01 08:10:10;;;;;;;;;;;;;;;;;;5075459;28;44747;-81
2022/10/01 08:12:38;;;;;;;;;;;;;;;;;;5071990;28;45523;-81
2022/10/01 08:15:07;;;;;;;;;;;;;;;;;;5087652;28;45114;-82
2022/10/01 08:17:34;;;;;;;;;;;;;;;;;;5098471;28;43604;-84
2022/10/01 08:20:01;;;;;;;;;;;;;;;;;;5089556;28;43238;-82
2022/10/01 08:22:28;;;;;;;;;;;;;;;;;;5069222;28;45795;-82
2022/10/01 08:24:55;;;;;;;;;;;;;;;;;;5071190;28;44746;-82
2022/10/01 08:27:22;;;;;;;;;;;;;;;;;;5072113;28;43721;-83
2022/10/01 08:29:49;;;;;;;;;;;;;;;;;;5068888;28;42906;-82
2022/10/01 08:32:16;;;;;;;;;;;;;;;;;;5076049;28;45403;-82
2022/10/01 08:34:44;;;;;;;;;;;;;;;;;;5080322;28;44480;-83
2022/10/01 08:37:11;;;;;;;;;;;;;;;;;;5079733;28;43678;-82
2022/10/01 08:39:37;;;;;;;;;;;;;;;;;;5079961;28;43970;-82
2022/10/01 08:42:04;;;;;;;;;;;;;;;;;;5083386;28;46046;-82
2022/10/01 08:44:32;;;;;;;;;;;;;;;;;;5082669;28;44715;-81
2022/10/01 08:46:59;;;;;;;;;;;;;;;;;;5080475;28;44039;-82
2022/10/01 08:49:26;;;;;;;;;;;;;;;;;;5078946;28;44672;-81
2022/10/01 08:51:53;;;;;;;;;;;;;;;;;;5075120;28;44777;-82
2022/10/01 08:54:20;;;;;;;;;;;;;;;;;;5071159;28;43693;-81
2022/10/01 08:56:47;;;;;;;;;;;;;;;;;;5073520;28;43999;-82
2022/10/01 08:59:14;;;;;;;;;;;;;;;;;;5074036;28;44854;-82
2022/10/01 09:01:41;;;;;;;;;;;;;;;;;;5072077;28;46721;-81
2022/10/01 09:04:09;;;;;;;;;;;;;;;;;;5075878;28;43646;-81
2022/10/01 09:06:37;;;;;;;;;;;;;;;;;;5087169;28;43470;-82
2022/10/01 09:09:04;;;;;;;;;;;;;;;;;;5085017;28;43439;-81
2022/10/01 09:11:31;;;;;;;;;;;;;;;;;;5073937;28;43637;-81
2022/10/01 09:13:58;;;;;;;;;;;;;;;;;;5080402;28;43864;-81
2022/10/01 09:16:25;;;;;;;;;;;;;;;;;;5069434;28;43950;-82
2022/10/01 09:18:52;;;;;;;;;;;;;;;;;;5084310;28;44603;-82
2022/10/01 09:21:19;;;;;;;;;;;;;;;;;;5072088;28;42978;-80
2022/10/01 09:23:47;;;;;;;;;;;;;;;;;;5073576;28;44888;-80
2022/10/01 09:26:14;;;;;;;;;;;;;;;;;;5082006;28;44894;-80
2022/10/01 09:28:41;;;;;;;;;;;;;;;;;;5074841;28;44953;-81
2022/10/01 09:31:08;;;;;;;;;;;;;;;;;;5081540;28;45931;-80
2022/10/01 09:33:36;;;;;;;;;;;;;;;;;;5069815;28;44914;-80
2022/10/01 09:36:03;;;;;;;;;;;;;;;;;;5070099;28;43838;-80
2022/10/01 09:38:30;;;;;;;;;;;;;;;;;;5084259;28;45079;-80
2022/10/01 09:40:57;;;;;;;;;;;;;;;;;;5086930;28;46463;-81
2022/10/01 09:43:24;;;;;;;;;;;;;;;;;;5073412;28;45108;-81
2022/10/01 09:45:51;;;;;;;;;;;;;;;;;;5082161;28;43603;-81
2022/10/01 09:48:18;;;;;;;;;;;;;;;;;;5074215;28;44646;-80
2022/10/01 09:50:49;;;;;;;;;;;;;;;;;;5081865;28;45687;-81
2022/10/01 09:53:16;;;;;;;;;;;;;;;;;;5081529;28;46571;-82
2022/10/01 09:55:43;;;;;;;;;;;;;;;;;;5079326;28;44014;-80
2022/10/01 09:58:10;;;;;;;;;;;;;;;;;;5082938;28;45217;-81
2022/10/01 10:00:37;;;;;;;;;;;;;;;;;;5091157;28;45810;-79
2022/10/01 10:03:04;;;;;;;;;;;;;;;;;;5072536;28;45277;-79
2022/10/01 10:05:31;;;;;;;;;;;;;;;;;;5077465;28;43564;-80
2022/10/01 10:07:58;;;;;;;;;;;;;;;;;;5069457;28;44851;-79
2022/10/01 10:10:26;;;;;;;;;;;;;;;;;;5085997;28;45694;-80
2022/10/01 10:12:53;;;;;;;;;;;;;;;;;;5083569;28;45116;-79
2022/10/01 10:15:20;;;;;;;;;;;;;;;;;;5061934;28;43712;-81
2022/10/01 10:17:49;;;;;;;;;;;;;;;;;;5069852;28;45147;-80
2022/10/01 10:20:16;;;;;;;;;;;;;;;;;;5076804;28;45343;-80
2022/10/01 10:22:43;;;;;;;;;;;;;;;;;;5071704;28;44832;-79
2022/10/01 10:25:10;;;;;;;;;;;;;;;;;;5072978;28;42988;-79
2022/10/01 10:27:37;;;;;;;;;;;;;;;;;;5074067;28;43781;-79
2022/10/01 10:30:04;;;;;;;;;;;;;;;;;;5077956;28;45812;-81
2022/10/01 10:32:31;;;;;;;;;;;;;;;;;;5077416;28;45027;-79
2022/10/01 10:34:59;;;;;;;;;;;;;;;;;;5071430;28;43449;-80
2022/10/01 10:37:29;;;;;;;;;;;;;;;;;;5084754;28;44375;-79
2022/10/01 10:39:56;;;;;;;;;;;;;;;;;;5089811;28;45656;-78
2022/10/01 10:42:24;;;;;;;;;;;;;;;;;;5090251;28;44790;-78
2022/10/01 10:44:53;;;;;;;;;;;;;;;;;;5109942;28;43958;-78
2022/10/01 10:47:20;;;;;;;;;;;;;;;;;;5085522;28;44702;-79
2022/10/01 10:49:47;;;;;;;;;;;;;;;;;;5090438;28;44948;-78
2022/10/01 10:52:14;;;;;;;;;;;;;;;;;;5080897;28;45125;-80
2022/10/01 10:54:41;;;;;;;;;;;;;;;;;;5077818;28;44089;-79
2022/10/01 10:57:08;;;;;;;;;;;;;;;;;;5078613;28;44766;-78
2022/10/01 10:59:36;;;;;;;;;;;;;;;;;;5076864;28;47117;-79
2022/10/01 11:02:03;;;;;;;;;;;;;;;;;;5075157;28;44117;-79
2022/10/01 11:04:30;;;;;;;;;;;;;;;;;;5079230;28;40821;-78
2022/10/01 11:06:57;;;;;;;;;;;;;;;;;;5079188;28;44038;-78
2022/10/01 11:09:24;;;;;;;;;;;;;;;;;;5084378;28;44830;-79
2022/10/01 11:11:52;;;;;;;;;;;;;;;;;;5073026;28;46144;-77
2022/10/01 11:14:20;;;;;;;;;;;;;;;;;;5077619;28;43826;-78
2022/10/01 11:16:49;;;;;;;;;;;;;;;;;;5085520;28;45498;-78
2022/10/01 11:19:16;;;;;;;;;;;;;;;;;;5076648;28;45928;-78
2022/10/01 11:21:46;;;;;;;;;;;;;;;;;;5073532;28;45293;-78
2022/10/01 11:24:14;;;;;;;;;;;;;;;;;;5079784;28;43706;-79
2022/10/01 11:26:41;;;;;;;;;;;;;;;;;;5080671;28;44817;-78
2022/10/01 11:29:08;;;;;;;;;;;;;;;;;;5079158;28;46790;-78
2022/10/01 11:31:35;;;;;;;;;;;;;;;;;;5076665;28;44825;-78
2022/10/01 11:34:02;;;;;;;;;;;;;;;;;;5069200;28;42971;-78
2022/10/01 11:36:29;;;;;;;;;;;;;;;;;;5077855;28;44194;-78
2022/10/01 11:38:56;;;;;;;;;;;;;;;;;;5073493;28;45793;-78
2022/10/01 11:41:23;;;;;;;;;;;;;;;;;;5078819;28;44982;-77
2022/10/01 11:43:50;;;;;;;;;;;;;;;;;;5075157;28;43707;-81
2022/10/01 11:46:18;;;;;;;;;;;;;;;;;;5075101;28;43250;-81
2022/10/01 11:48:45;;;;;;;;;;;;;;;;;;5071457;28;44193;-80
2022/10/01 11:51:12;;;;;;;;;;;;;;;;;;5073613;28;45086;-79
2022/10/01 11:53:39;;;;;;;;;;;;;;;;;;5075797;28;43590;-78
2022/10/01 11:58:53;;;;;;;;;;;;;;;;;;5070618;28;46017;-79
2022/10/01 12:01:20;;;;;;;;;;;;;;;;;;5074741;28;45006;-79
2022/10/01 12:03:48;;;;;;;;;;;;;;;;;;5071753;28;43718;-79
2022/10/01 12:06:15;;;;;;;;;;;;;;;;;;5078436;28;46138;-78
2022/10/01 12:08:44;;;;;;;;;;;;;;;;;;5073050;28;46260;-78
2022/10/01 12:11:11;;;;;;;;;;;;;;;;;;5072961;28;44451;-79
2022/10/01 12:13:39;;;;;;;;;;;;;;;;;;5072269;28;42389;-77
2022/10/01 12:16:06;;;;;;;;;;;;;;;;;;5070577;28;43713;-78
2022/10/01 12:18:33;;;;;;;;;;;;;;;;;;5072886;28;46563;-78
2022/10/01 12:21:00;;;;;;;;;;;;;;;;;;5066679;28;44776;-79
2022/10/01 12:23:27;;;;;;;;;;;;;;;;;;5083104;28;43593;-78
2022/10/01 12:25:54;;;;;;;;;;;;;;;;;;5079620;28;44588;-78
2022/10/01 12:28:23;;;;;;;;;;;;;;;;;;5073971;28;45983;-77
2022/10/01 12:30:50;;;;;;;;;;;;;;;;;;5074381;28;44780;-77
2022/10/01 12:33:17;;;;;;;;;;;;;;;;;;5081196;28;43456;-77
2022/10/01 12:35:46;;;;;;;;;;;;;;;;;;5074225;28;45936;-77
2022/10/01 12:38:13;;;;;;;;;;;;;;;;;;5071675;28;45763;-77
2022/10/01 12:40:40;;;;;;;;;;;;;;;;;;5078027;28;45133;-78
2022/10/01 12:43:07;;;;;;;;;;;;;;;;;;5067467;28;41914;-77
2022/10/01 12:45:34;;;;;;;;;;;;;;;;;;5073916;28;42952;-77
2022/10/01 12:48:02;;;;;;;;;;;;;;;;;;5075013;28;46758;-78
2022/10/01 12:50:29;;;;;;;;;;;;;;;;;;5077328;28;44698;-78
2022/10/01 12:52:56;;;;;;;;;;;;;;;;;;5074871;28;43676;-77
2022/10/01 12:55:26;;;;;;;;;;;;;;;;;;5078721;28;44704;-77
2022/10/01 12:57:53;;;;;;;;;;;;;;;;;;5072349;28;45721;-77
2022/10/01 13:00:20;;;;;;;;;;;;;;;;;;5073192;28;45077;-77
2022/10/01 13:02:47;;;;;;;;;;;;;;;;;;5075812;28;44645;-77
2022/10/01 13:05:14;;;;;;;;;;;;;;;;;;5073057;28;46095;-77
2022/10/01 13:07:45;;;;;;;;;;;;;;;;;;5071220;28;45777;-77
2022/10/01 13:10:13;;;;;;;;;;;;;;;;;;5075524;28;45105;-77
2022/10/01 13:12:40;;;;;;;;;;;;;;;;;;5070850;28;42298;-78
2022/10/01 13:15:07;;;;;;;;;;;;;;;;;;5071122;28;45826;-78
2022/10/01 13:17:34;;;;;;;;;;;;;;;;;;5071114;28;45751;-77
2022/10/01 13:20:01;;;;;;;;;;;;;;;;;;5068694;28;44897;-77
2022/10/01 13:22:31;;;;;;;;;;;;;;;;;;5074547;28;42296;-77
2022/10/01 13:24:59;;;;;;;;;;;;;;;;;;5069511;28;44910;-78
2022/10/01 13:27:27;;;;;;;;;;;;;;;;;;5070425;28;47126;-77
2022/10/01 13:29:54;;;;;;;;;;;;;;;;;;5078422;28;44780;-78
2022/10/01 13:32:21;;;;;;;;;;;;;;;;;;5065127;28;43493;-78
2022/10/01 13:34:48;;;;;;;;;;;;;;;;;;5080399;28;45789;-78
2022/10/01 13:37:15;;;;;;;;;;;;;;;;;;5068552;28;45715;-78
2022/10/01 13:39:42;;;;;;;;;;;;;;;;;;5070062;28;45106;-78
2022/10/01 13:42:09;;;;;;;;;;;;;;;;;;5069869;28;42719;-77
2022/10/01 13:44:36;;;;;;;;;;;;;;;;;;5085100;28;44758;-77
2022/10/01 13:47:05;;;;;;;;;;;;;;;;;;5069994;28;45762;-77
2022/10/01 13:49:33;;;;;;;;;;;;;;;;;;5066197;28;45048;-77
2022/10/01 13:52:04;;;;;;;;;;;;;;;;;;5077774;28;43631;-78
2022/10/01 13:54:32;;;;;;;;;;;;;;;;;;5073505;28;45460;-77
2022/10/01 13:56:59;;;;;;;;;;;;;;;;;;5082672;28;43495;-78
2022/10/01 13:59:26;;;;;;;;;;;;;;;;;;5086054;28;42570;-77
2022/10/01 14:01:53;;;;;;;;;;;;;;;;;;5083901;28;43454;-77
2022/10/01 14:04:20;;;;;;;;;;;;;;;;;;5079532;28;43358;-77
2022/10/01 14:06:48;;;;;;;;;;;;;;;;;;5072700;28;45698;-77
2022/10/01 14:09:15;;;;;;;;;;;;;;;;;;5082868;28;43606;-77
2022/10/01 14:17:14;;;;;;;;;;;;;;;;;;5079556;28;45799;-78
2022/10/01 14:19:41;;;;;;;;;;;;;;;;;;5082750;28;44991;-78
2022/10/01 14:22:08;;;;;;;;;;;;;;;;;;5084572;28;42432;-77
2022/10/01 14:24:35;;;;;;;;;;;;;;;;;;5078086;28;45063;-78
2022/10/01 14:27:02;;;;;;;;;;;;;;;;;;5069905;28;45564;-77
2022/10/01 14:29:29;;;;;;;;;;;;;;;;;;5079302;28;45016;-78
2022/10/01 14:31:56;;;;;;;;;;;;;;;;;;5072494;28;43468;-78
2022/10/01 14:34:23;;;;;;;;;;;;;;;;;;5073438;28;44865;-76
2022/10/01 14:36:50;;;;;;;;;;;;;;;;;;5080727;28;45670;-76
2022/10/01 14:39:20;;;;;;;;;;;;;;;;;;5078888;28;45350;-77
2022/10/01 14:41:47;;;;;;;;;;;;;;;;;;5072778;28;44732;-77
2022/10/01 14:44:14;;;;;;;;;;;;;;;;;;5072570;28;45797;-77
2022/10/01 14:46:42;;;;;;;;;;;;;;;;;;5070512;28;45513;-77
2022/10/01 14:49:09;;;;;;;;;;;;;;;;;;5083028;28;43474;-77
2022/10/01 14:51:36;;;;;;;;;;;;;;;;;;5079557;28;42338;-77
2022/10/01 14:54:03;;;;;;;;;;;;;;;;;;5076468;28;44649;-77
2022/10/01 14:56:30;;;;;;;;;;;;;;;;;;5068523;28;47133;-77
2022/10/01 14:59:00;;;;;;;;;;;;;;;;;;5072254;28;44223;-78
2022/10/01 15:01:27;;;;;;;;;;;;;;;;;;5073675;28;43683;-77
2022/10/01 15:03:54;;;;;;;;;;;;;;;;;;5083960;28;44856;-77
2022/10/01 15:06:21;;;;;;;;;;;;;;;;;;5079928;28;45859;-77
2022/10/01 15:08:48;;;;;;;;;;;;;;;;;;5076656;28;45003;-77
2022/10/01 15:11:16;;;;;;;;;;;;;;;;;;5075150;28;43988;-78
2022/10/01 15:13:43;;;;;;;;;;;;;;;;;;5084875;28;45758;-78
2022/10/01 15:16:10;;;;;;;;;;;;;;;;;;5084828;28;44848;-77
2022/10/01 15:18:37;;;;;;;;;;;;;;;;;;5085615;28;44131;-77
2022/10/01 15:21:05;;;;;;;;;;;;;;;;;;5082800;28;42444;-77
2022/10/01 15:23:32;;;;;;;;;;;;;;;;;;5093202;28;44893;-78
2022/10/01 15:25:59;;;;;;;;;;;;;;;;;;5097377;28;45676;-77
2022/10/01 15:28:26;;;;;;;;;;;;;;;;;;5090425;28;43739;-77
2022/10/01 15:30:53;;;;;;;;;;;;;;;;;;5087603;28;43390;-77
2022/10/01 15:33:20;;;;;;;;;;;;;;;;;;5086079;28;43564;-78
2022/10/01 15:35:47;;;;;;;;;;;;;;;;;;5079019;28;45922;-77
2022/10/01 15:38:14;;;;;;;;;;;;;;;;;;5089547;28;45406;-78
2022/10/01 15:40:41;;;;;;;;;;;;;;;;;;5094395;28;43685;-78
2022/10/01 15:43:08;;;;;;;;;;;;;;;;;;5093948;28;44873;-77
2022/10/01 15:45:35;;;;;;;;;;;;;;;;;;5086975;28;45635;-78
2022/10/01 15:48:02;;;;;;;;;;;;;;;;;;5093117;28;44891;-77
2022/10/01 15:50:31;;;;;;;;;;;;;;;;;;5086689;28;43753;-77
2022/10/01 15:53:01;;;;;;;;;;;;;;;;;;5099902;28;45921;-77
2022/10/01 15:55:28;;;;;;;;;;;;;;;;;;5093574;28;45675;-78
2022/10/01 15:57:55;;;;;;;;;;;;;;;;;;5088141;28;45214;-77
2022/10/01 16:00:22;;;;;;;;;;;;;;;;;;5094819;28;43411;-77
2022/10/01 16:02:49;;;;;;;;;;;;;;;;;;5086741;28;44748;-77
2022/10/01 16:05:16;;;;;;;;;;;;;;;;;;5090913;28;45916;-77
2022/10/01 16:07:43;;;;;;;;;;;;;;;;;;5089448;28;45089;-77
2022/10/01 16:10:10;;;;;;;;;;;;;;;;;;5083487;28;43604;-77
2022/10/01 16:12:37;;;;;;;;;;;;;;;;;;5093027;28;45080;-78
2022/10/01 16:15:05;;;;;;;;;;;;;;;;;;5069110;28;45513;-77
2022/10/01 16:17:32;;;;;;;;;;;;;;;;;;5093932;28;46052;-77
2022/10/01 16:19:59;;;;;;;;;;;;;;;;;;5093651;28;43684;-78
2022/10/01 16:22:26;;;;;;;;;;;;;;;;;;5077059;28;44599;-78
2022/10/01 16:24:53;;;;;;;;;;;;;;;;;;5080510;28;45690;-78
2022/10/01 16:27:21;;;;;;;;;;;;;;;;;;5082793;28;45735;-77
2022/10/01 16:29:48;;;;;;;;;;;;;;;;;;5076858;28;43311;-78
2022/10/01 16:32:15;;;;;;;;;;;;;;;;;;5088073;28;45195;-78
2022/10/01 16:34:42;;;;;;;;;;;;;;;;;;5092096;28;46069;-78
2022/10/01 16:37:09;;;;;;;;;;;;;;;;;;5090986;28;44850;-78
2022/10/01 16:39:36;;;;;;;;;;;;;;;;;;5101029;28;43692;-77
2022/10/01 16:42:03;;;;;;;;;;;;;;;;;;5079687;28;44853;-77
2022/10/01 16:44:49;;;;;;;;;;;;;;;;;;5075904;28;45749;-78
2022/10/01 16:47:17;;;;;;;;;;;;;;;;;;5078835;28;44855;-77
2022/10/01 16:49:45;;;;;;;;;;;;;;;;;;5075412;28;43691;-78
2022/10/01 16:52:15;;;;;;;;;;;;;;;;;;5060853;28;44848;-77
2022/10/01 16:54:43;;;;;;;;;;;;;;;;;;5073264;28;44450;-78
2022/10/01 16:57:10;;;;;;;;;;;;;;;;;;5074421;28;45254;-78
2022/10/01 16:59:37;;;;;;;;;;;;;;;;;;5064431;28;44698;-77